Time;durP1;ratioP1;P1;durP2;ratioP2;P2;SDS_P1;SDS_P2;PMS_P1;PMS_P2;Temp;Humidity;BMP_temperature;BMP_pressure;BME280_temperature;BME280_humidity;BME280_pressure;Samples;Min_cycle;Max_cycle;Signal;HPM_P1;HPM_P2
2021/01/31 15:34:09;;;;;;;39.80;16.92;;;-1.40;87.30;;;;;;5144450;27;20846;-85
2021/01/31 15:36:35;;;;;;;44.78;20.08;;;-1.50;87.60;;;;;;5110405;28;20065;-85
2021/01/31 15:39:00;;;;;;;45.78;21.42;;;-1.50;87.60;;;;;;5109725;28;20135;-83
2021/01/31 15:41:26;;;;;;;50.67;21.67;;;-1.50;87.20;;;;;;5125070;28;20394;-83
2021/01/31 15:43:52;;;;;;;48.15;21.20;;;-1.50;88.10;;;;;;5127040;28;20027;-83
2021/01/31 15:46:17;;;;;;;59.10;25.25;;;-1.40;88.40;;;;;;5111117;28;20358;-83
2021/01/31 15:48:43;;;;;;;57.88;25.45;;;-1.40;89.20;;;;;;5126813;28;20114;-83
2021/01/31 15:51:09;;;;;;;46.13;22.08;;;-1.30;89.80;;;;;;5127065;28;20038;-83
2021/01/31 15:53:35;;;;;;;36.50;18.65;;;-1.30;89.80;;;;;;5126869;28;20035;-84
2021/01/31 15:56:00;;;;;;;47.17;22.33;;;-1.20;90.30;;;;;;5126934;28;20393;-83
2021/01/31 15:58:26;;;;;;;42.47;23.00;;;-1.20;90.30;;;;;;5126580;28;20065;-84
2021/01/31 16:00:52;;;;;;;42.53;22.27;;;-1.10;89.10;;;;;;5109767;28;20032;-84
2021/01/31 16:03:18;;;;;;;35.60;18.17;;;-1.10;86.40;;;;;;5109536;28;20545;-83
2021/01/31 16:05:44;;;;;;;39.28;21.00;;;-1.10;89.50;;;;;;5110920;28;20098;-83
2021/01/31 16:08:10;;;;;;;56.53;32.85;;;-1.00;89.20;;;;;;5109507;28;20258;-84
2021/01/31 16:10:36;;;;;;;55.60;29.70;;;-1.00;90.00;;;;;;5109558;28;20111;-83
2021/01/31 16:13:03;;;;;;;42.05;23.50;;;-0.90;90.30;;;;;;5109441;28;20452;-84
2021/01/31 16:15:30;;;;;;;33.35;18.60;;;-0.90;90.10;;;;;;5109212;28;20103;-83
2021/01/31 16:17:56;;;;;;;32.72;17.30;;;-0.80;90.20;;;;;;5110675;28;20541;-84
2021/01/31 16:20:26;;;;;;;38.50;21.13;;;-0.80;90.10;;;;;;5109439;28;20032;-84
2021/01/31 16:22:52;;;;;;;41.35;23.05;;;-0.80;89.20;;;;;;5110664;28;20184;-84
2021/01/31 16:25:18;;;;;;;47.60;27.27;;;-0.70;89.90;;;;;;5108783;28;20064;-84
2021/01/31 16:27:44;;;;;;;45.97;28.30;;;-0.80;89.30;;;;;;5109006;28;20534;-85
2021/01/31 16:30:12;;;;;;;50.78;27.88;;;-0.70;89.70;;;;;;5110229;28;20355;-84
2021/01/31 16:32:38;;;;;;;52.67;30.67;;;-0.80;87.90;;;;;;5108746;28;20058;-85
2021/01/31 16:35:05;;;;;;;48.30;29.75;;;-0.90;87.00;;;;;;5109103;28;20020;-84
2021/01/31 16:37:31;;;;;;;42.03;24.83;;;-0.80;87.90;;;;;;5108890;28;20038;-84
2021/01/31 16:39:57;;;;;;;41.15;24.70;;;-0.80;88.50;;;;;;5109684;28;20024;-84
2021/01/31 16:42:22;;;;;;;50.42;27.95;;;-0.80;88.60;;;;;;5109823;28;20110;-84
2021/01/31 16:44:48;;;;;;;40.95;22.60;;;-0.80;89.20;;;;;;5100251;28;20020;-85
2021/01/31 16:47:14;;;;;;;42.47;25.00;;;-0.90;89.10;;;;;;5095360;28;20024;-84
2021/01/31 16:49:40;;;;;;;43.20;25.00;;;-0.80;89.60;;;;;;5096332;28;20107;-84
2021/01/31 16:52:06;;;;;;;36.47;22.80;;;-0.80;90.00;;;;;;5095104;28;20032;-84
2021/01/31 16:54:31;;;;;;;45.65;29.52;;;-0.80;90.10;;;;;;5095080;28;20024;-84
2021/01/31 16:56:57;;;;;;;39.83;24.08;;;-0.80;89.20;;;;;;5095038;28;20035;-84
2021/01/31 16:59:23;;;;;;;37.22;22.10;;;-0.80;87.90;;;;;;5095247;28;20031;-84
2021/01/31 17:01:51;;;;;;;38.88;21.88;;;-0.80;88.00;;;;;;5095775;28;20020;-84
2021/01/31 17:04:17;;;;;;;37.67;20.40;;;-0.80;88.00;;;;;;5095009;28;20028;-84
2021/01/31 17:07:01;;;;;;;47.15;25.38;;;-0.80;88.70;;;;;;5094755;28;20024;-84
2021/01/31 17:09:27;;;;;;;49.10;25.70;;;-0.80;86.20;;;;;;5094275;28;20028;-84
2021/01/31 17:11:53;;;;;;;45.22;22.50;;;-0.90;85.50;;;;;;5094261;28;20382;-84
2021/01/31 17:14:19;;;;;;;62.33;30.98;;;-0.90;87.40;;;;;;5094193;28;20024;-84
2021/01/31 17:16:44;;;;;;;62.97;31.05;;;-0.90;85.20;;;;;;5094498;28;20035;-83
2021/01/31 17:19:10;;;;;;;54.95;28.20;;;-1.00;86.20;;;;;;5094430;28;20503;-84
2021/01/31 17:21:36;;;;;;;58.50;29.05;;;-1.00;86.80;;;;;;5095139;28;20032;-84
2021/01/31 17:24:02;;;;;;;54.67;27.13;;;-1.00;86.50;;;;;;5094681;28;20419;-84
2021/01/31 17:26:28;;;;;;;64.05;34.13;;;-1.10;85.20;;;;;;5094610;28;20031;-85
2021/01/31 17:28:53;;;;;;;64.93;31.83;;;-1.00;87.10;;;;;;5094846;28;20032;-85
2021/01/31 17:31:19;;;;;;;54.35;27.10;;;-1.00;87.10;;;;;;5095014;28;20127;-85
2021/01/31 17:33:45;;;;;;;61.92;30.80;;;-1.00;87.30;;;;;;5094097;28;20048;-85
2021/01/31 17:36:11;;;;;;;47.10;25.45;;;-1.10;85.10;;;;;;5094575;28;20043;-85
2021/01/31 17:38:36;;;;;;;54.00;28.30;;;-1.10;87.10;;;;;;5094774;28;20078;-85
2021/01/31 17:41:02;;;;;;;49.30;25.45;;;-1.10;84.90;;;;;;5095580;28;20020;-82
2021/01/31 17:43:28;;;;;;;50.53;25.67;;;-1.20;85.10;;;;;;5095328;28;20024;-82
2021/01/31 17:45:54;;;;;;;50.22;26.40;;;-1.20;86.00;;;;;;5093488;28;20035;-81
2021/01/31 17:48:23;;;;;;;48.92;26.98;;;-1.20;85.80;;;;;;5093468;28;20469;-81
2021/01/31 17:50:49;;;;;;;60.97;33.80;;;-1.20;86.20;;;;;;5093733;28;20028;-81
2021/01/31 17:53:15;;;;;;;52.97;28.85;;;-1.30;84.90;;;;;;5094516;28;20464;-81
2021/01/31 17:55:41;;;;;;;53.65;29.40;;;-1.30;86.00;;;;;;5092637;28;20024;-80
2021/01/31 17:58:07;;;;;;;51.45;28.88;;;-1.30;86.70;;;;;;5093591;28;20063;-81
2021/01/31 18:00:32;;;;;;;61.97;32.70;;;-1.40;87.10;;;;;;5093404;28;20062;-80
2021/01/31 18:02:58;;;;;;;64.80;32.10;;;-1.40;87.10;;;;;;5094333;28;20452;-80
2021/01/31 18:05:26;;;;;;;53.47;28.67;;;-1.40;87.40;;;;;;5094651;28;20381;-80
2021/01/31 18:07:52;;;;;;;49.25;26.77;;;-1.40;88.30;;;;;;5094723;28;20124;-80
2021/01/31 18:10:19;;;;;;;59.30;31.20;;;-1.40;88.60;;;;;;5093430;28;20048;-80
2021/01/31 18:12:45;;;;;;;56.65;29.70;;;-1.30;88.80;;;;;;5093202;28;20108;-80
2021/01/31 18:15:12;;;;;;;60.25;30.05;;;-1.40;88.50;;;;;;5093518;28;20074;-81
2021/01/31 18:17:40;;;;;;;78.93;39.25;;;-1.40;88.30;;;;;;5092932;28;20027;-81
2021/01/31 18:20:07;;;;;;;70.35;35.40;;;-1.40;85.10;;;;;;5089870;28;20115;-80
2021/01/31 18:22:32;;;;;;;67.93;32.40;;;-1.40;88.10;;;;;;5073868;28;20524;-80
2021/01/31 18:24:58;;;;;;;72.80;38.67;;;-1.40;87.60;;;;;;5089716;28;20033;-80
2021/01/31 18:27:24;;;;;;;93.07;45.00;;;-1.30;87.90;;;;;;5073848;28;20071;-81
2021/01/31 18:29:50;;;;;;;105.38;49.88;;;-1.30;87.70;;;;;;5085799;28;20028;-80
2021/01/31 18:32:16;;;;;;;92.85;46.60;;;-1.30;87.90;;;;;;5092035;28;20401;-81
2021/01/31 18:34:42;;;;;;;106.85;51.70;;;-1.30;88.50;;;;;;5092099;28;20028;-82
2021/01/31 18:37:09;;;;;;;128.23;59.88;;;-1.30;88.30;;;;;;5103842;28;20076;-82
2021/01/31 18:39:34;;;;;;;119.97;56.53;;;-1.30;88.50;;;;;;5097166;28;20028;-82
2021/01/31 18:42:00;;;;;;;136.23;59.63;;;-1.30;88.70;;;;;;5093521;28;20035;-82
2021/01/31 18:44:26;;;;;;;122.05;56.70;;;-1.20;87.40;;;;;;5089701;28;20024;-82
2021/01/31 18:46:52;;;;;;;135.93;61.15;;;-1.30;88.00;;;;;;5087655;28;20115;-82
2021/01/31 18:49:19;;;;;;;170.55;76.47;;;-1.30;88.00;;;;;;5089837;28;20023;-82
2021/01/31 18:51:45;;;;;;;154.48;71.22;;;-1.30;88.10;;;;;;5088773;28;20035;-82
2021/01/31 18:54:11;;;;;;;138.55;64.03;;;-1.30;88.60;;;;;;5091078;28;20020;-82
2021/01/31 18:56:45;;;;;;;126.80;58.85;;;-1.30;88.80;;;;;;5089958;28;20020;-83
2021/01/31 18:59:15;;;;;;;121.20;59.95;;;-1.30;89.20;;;;;;5092418;28;20051;-81
2021/01/31 19:01:43;;;;;;;118.20;52.83;;;-1.20;88.80;;;;;;5092165;28;20085;-82
2021/01/31 19:04:09;;;;;;;119.55;56.17;;;-1.20;89.00;;;;;;5090930;28;20039;-82
2021/01/31 19:06:35;;;;;;;96.97;47.00;;;-1.20;88.40;;;;;;5090155;28;20121;-83
2021/01/31 19:09:02;;;;;;;94.13;47.50;;;-1.20;88.20;;;;;;5092498;28;20045;-83
2021/01/31 19:11:28;;;;;;;95.30;47.13;;;-1.20;88.40;;;;;;5093019;28;20421;-84
2021/01/31 19:13:54;;;;;;;101.40;49.30;;;-1.20;88.80;;;;;;5093648;28;20020;-84
2021/01/31 19:16:22;;;;;;;95.85;47.42;;;-1.30;88.00;;;;;;5092978;28;20051;-84
2021/01/31 19:18:49;;;;;;;92.05;44.90;;;-1.30;87.60;;;;;;5093909;28;20023;-83
2021/01/31 19:21:15;;;;;;;106.07;49.75;;;-1.30;87.70;;;;;;5092728;28;20020;-83
2021/01/31 19:23:41;;;;;;;112.68;50.65;;;-1.30;88.20;;;;;;5094070;28;20038;-84
2021/01/31 19:26:07;;;;;;;103.65;47.60;;;-1.30;88.60;;;;;;5092755;28;20106;-84
2021/01/31 19:28:32;;;;;;;94.63;46.50;;;-1.40;87.70;;;;;;5092604;28;20028;-83
2021/01/31 19:30:58;;;;;;;88.65;43.92;;;-1.30;88.00;;;;;;5092178;28;20046;-83
2021/01/31 19:33:24;;;;;;;97.05;45.88;;;-1.30;88.00;;;;;;5093490;28;20105;-84
2021/01/31 19:35:50;;;;;;;103.82;48.53;;;-1.40;87.70;;;;;;5092625;28;20355;-83
2021/01/31 19:38:15;;;;;;;89.28;43.47;;;-1.50;87.70;;;;;;5092681;28;20024;-83
2021/01/31 19:40:42;;;;;;;76.18;39.28;;;-1.50;88.50;;;;;;5092492;28;20362;-84
2021/01/31 19:43:08;;;;;;;82.80;40.42;;;-1.40;88.90;;;;;;5109675;28;20035;-84
2021/01/31 19:45:35;;;;;;;78.97;39.95;;;-1.40;89.00;;;;;;5109465;28;20032;-84
2021/01/31 19:48:02;;;;;;;85.05;40.72;;;-1.40;88.80;;;;;;5108955;28;20028;-83
2021/01/31 19:50:28;;;;;;;76.63;39.08;;;-1.40;88.80;;;;;;5092417;28;20020;-83
2021/01/31 19:52:54;;;;;;;76.20;37.95;;;-1.40;88.20;;;;;;5092404;28;20024;-84
2021/01/31 19:55:23;;;;;;;76.20;38.95;;;-1.40;88.60;;;;;;5093798;28;20048;-83
2021/01/31 19:57:49;;;;;;;83.05;40.08;;;-1.40;89.00;;;;;;5092345;28;20020;-86
2021/01/31 20:00:18;;;;;;;86.85;41.72;;;-1.30;89.20;;;;;;5092909;28;20020;-84
2021/01/31 20:02:44;;;;;;;80.32;40.53;;;-1.30;89.20;;;;;;5093678;28;20111;-86
2021/01/31 20:05:11;;;;;;;83.88;40.25;;;-1.30;88.80;;;;;;5088222;28;20111;-85
2021/01/31 20:07:40;;;;;;;88.47;41.83;;;-1.40;89.10;;;;;;5071128;28;20033;-84
2021/01/31 20:10:08;;;;;;;86.25;43.40;;;-1.40;89.00;;;;;;5072328;28;20052;-84
2021/01/31 20:12:34;;;;;;;94.47;46.28;;;-1.40;88.90;;;;;;5072035;28;20386;-82
2021/01/31 20:15:00;;;;;;;98.35;48.38;;;-1.40;89.10;;;;;;5073342;28;20031;-83
2021/01/31 20:17:26;;;;;;;109.45;53.20;;;-1.40;88.60;;;;;;5082804;28;20031;-83
2021/01/31 20:19:51;;;;;;;118.30;57.65;;;-1.40;89.70;;;;;;5094243;28;20024;-83
2021/01/31 20:22:17;;;;;;;131.73;65.20;;;-1.40;89.00;;;;;;5097166;28;20020;-83
2021/01/31 20:25:17;;;;;;;121.90;59.45;;;-1.40;87.10;;;;;;5111531;27;20372;-83
2021/01/31 20:27:43;;;;;;;137.82;64.78;;;-1.40;87.90;;;;;;5110466;28;20031;-84
2021/01/31 20:30:10;;;;;;;125.07;61.30;;;-1.40;88.00;;;;;;5111617;28;20020;-83
2021/01/31 20:32:36;;;;;;;132.60;62.67;;;-1.40;88.30;;;;;;5109063;28;20019;-83
2021/01/31 20:35:02;;;;;;;120.55;58.60;;;-1.50;88.30;;;;;;5111332;28;20039;-83
2021/01/31 20:37:28;;;;;;;122.38;60.05;;;-1.40;88.40;;;;;;5110263;28;20024;-84
2021/01/31 20:39:53;;;;;;;108.35;52.97;;;-1.50;87.20;;;;;;5110284;28;20369;-83
2021/01/31 20:42:19;;;;;;;89.95;45.33;;;-1.50;87.60;;;;;;5111319;28;20099;-83
2021/01/31 20:44:45;;;;;;;93.53;46.30;;;-1.50;88.00;;;;;;5110121;28;20020;-83
2021/01/31 20:47:10;;;;;;;98.55;47.28;;;-1.50;88.20;;;;;;5111024;28;20023;-84
2021/01/31 20:49:36;;;;;;;88.55;42.53;;;-1.40;88.90;;;;;;5109145;28;20111;-83
2021/01/31 20:52:02;;;;;;;78.47;42.30;;;-1.40;88.70;;;;;;5108978;28;20024;-83
2021/01/31 20:54:28;;;;;;;88.00;42.92;;;-1.30;88.60;;;;;;5110698;28;20032;-83
2021/01/31 20:56:54;;;;;;;78.90;42.50;;;-1.30;89.00;;;;;;5109587;28;20108;-83
2021/01/31 20:59:19;;;;;;;95.65;47.95;;;-1.30;88.90;;;;;;5110780;28;20032;-83
2021/01/31 21:01:45;;;;;;;109.03;53.03;;;-1.40;87.90;;;;;;5109395;28;20416;-83
2021/01/31 21:04:11;;;;;;;94.00;46.80;;;-1.40;87.40;;;;;;5110385;28;20028;-83
2021/01/31 21:06:36;;;;;;;89.07;45.55;;;-1.40;88.40;;;;;;5109123;28;20114;-83
2021/01/31 21:09:03;;;;;;;103.50;48.17;;;-1.40;88.80;;;;;;5109290;28;20077;-83
2021/01/31 21:11:29;;;;;;;80.93;42.05;;;-1.30;88.90;;;;;;5110528;28;20012;-83
2021/01/31 21:13:55;;;;;;;79.82;41.08;;;-1.30;88.70;;;;;;5109164;28;20034;-83
2021/01/31 21:16:21;;;;;;;81.05;41.17;;;-1.30;88.90;;;;;;5108343;28;20381;-83
2021/01/31 21:18:51;;;;;;;85.18;42.47;;;-1.30;87.40;;;;;;5108616;28;20038;-83
2021/01/31 21:21:17;;;;;;;96.18;49.05;;;-1.30;88.10;;;;;;5109866;28;20028;-83
2021/01/31 21:23:43;;;;;;;84.53;43.15;;;-1.40;86.30;;;;;;5108603;28;20073;-82
2021/01/31 21:26:09;;;;;;;90.10;44.75;;;-1.40;86.90;;;;;;5109122;28;20024;-83
2021/01/31 21:28:34;;;;;;;91.25;43.97;;;-1.50;86.80;;;;;;5108455;28;20080;-83
2021/01/31 21:31:00;;;;;;;72.50;37.38;;;-1.40;87.20;;;;;;5109115;28;20469;-83
2021/01/31 21:33:26;;;;;;;66.50;35.53;;;-1.40;87.50;;;;;;5109128;28;20031;-83
2021/01/31 21:35:51;;;;;;;68.63;34.75;;;-1.40;87.50;;;;;;5101096;28;20035;-83
2021/01/31 21:38:17;;;;;;;76.13;37.80;;;-1.40;88.40;;;;;;5096826;28;20031;-83
2021/01/31 21:40:43;;;;;;;65.97;34.67;;;-1.40;88.40;;;;;;5095543;28;20055;-83
2021/01/31 21:43:08;;;;;;;71.65;36.78;;;-1.40;88.20;;;;;;5095317;28;20377;-83
2021/01/31 21:45:34;;;;;;;77.10;39.78;;;-1.30;87.40;;;;;;5095096;28;20070;-83
2021/01/31 21:48:00;;;;;;;68.45;35.20;;;-1.40;86.40;;;;;;5095093;28;20052;-83
2021/01/31 21:50:29;;;;;;;69.25;33.85;;;-1.40;87.70;;;;;;5095306;28;20031;-82
2021/01/31 21:52:55;;;;;;;65.45;32.88;;;-1.40;88.10;;;;;;5096391;28;20028;-83
2021/01/31 21:55:21;;;;;;;66.53;32.90;;;-1.40;87.50;;;;;;5100859;28;20027;-83
2021/01/31 21:57:47;;;;;;;63.85;31.55;;;-1.30;87.90;;;;;;5115757;28;20358;-83
2021/01/31 22:00:17;;;;;;;75.85;36.10;;;-1.30;88.00;;;;;;5115582;28;20026;-82
2021/01/31 22:02:43;;;;;;;85.97;38.85;;;-1.40;86.90;;;;;;5115516;28;20079;-83
2021/01/31 22:05:11;;;;;;;83.47;38.17;;;-1.40;87.70;;;;;;5115156;28;20488;-83
2021/01/31 22:07:36;;;;;;;86.15;39.92;;;-1.40;87.70;;;;;;5115406;28;20454;-82
2021/01/31 22:10:05;;;;;;;78.32;38.42;;;-1.40;87.70;;;;;;5114063;28;20107;-83
2021/01/31 22:12:30;;;;;;;78.60;37.92;;;-1.50;87.20;;;;;;5094821;28;20020;-83
2021/01/31 22:14:56;;;;;;;86.38;39.97;;;-1.50;87.50;;;;;;5094752;28;20031;-83
2021/01/31 22:17:22;;;;;;;74.63;35.65;;;-1.50;86.40;;;;;;5094736;28;20028;-83
2021/01/31 22:19:48;;;;;;;66.50;32.22;;;-1.50;87.00;;;;;;5094980;28;20031;-83
2021/01/31 22:22:13;;;;;;;61.53;30.85;;;-1.50;87.50;;;;;;5095954;28;20028;-83
2021/01/31 22:24:39;;;;;;;63.63;29.50;;;-1.50;87.60;;;;;;5094366;28;20421;-82
2021/01/31 22:27:05;;;;;;;54.03;28.42;;;-1.40;87.90;;;;;;5094231;28;20386;-83
2021/01/31 22:29:31;;;;;;;53.17;25.75;;;-1.50;87.90;;;;;;5094537;28;20031;-82
2021/01/31 22:31:56;;;;;;;53.13;25.50;;;-1.50;87.90;;;;;;5094620;28;20483;-83
2021/01/31 22:34:22;;;;;;;49.92;24.48;;;-1.40;87.90;;;;;;5094565;28;20024;-83
2021/01/31 22:36:48;;;;;;;49.90;24.40;;;-1.50;87.90;;;;;;5096021;28;20028;-83
2021/01/31 22:39:13;;;;;;;45.38;22.08;;;-1.40;88.00;;;;;;5094109;28;20027;-83
2021/01/31 22:41:39;;;;;;;40.05;21.55;;;-1.40;88.40;;;;;;5094098;28;20063;-83
2021/01/31 22:44:05;;;;;;;50.85;24.85;;;-1.40;88.50;;;;;;5094444;28;20024;-83
2021/01/31 22:46:31;;;;;;;56.10;27.88;;;-1.30;88.40;;;;;;5093607;28;20024;-83
2021/01/31 22:48:57;;;;;;;54.67;28.08;;;-1.40;88.80;;;;;;5094173;28;20027;-83
2021/01/31 22:51:28;;;;;;;53.60;26.77;;;-1.40;88.70;;;;;;5094211;28;20016;-83
2021/01/31 22:53:54;;;;;;;53.95;26.35;;;-1.40;89.20;;;;;;5095436;28;20024;-83
2021/01/31 22:56:21;;;;;;;64.53;30.38;;;-1.40;89.20;;;;;;5093658;28;20020;-83
2021/01/31 22:58:47;;;;;;;58.30;29.02;;;-1.40;89.50;;;;;;5094154;28;20035;-83
2021/01/31 23:01:13;;;;;;;65.15;31.65;;;-1.50;89.70;;;;;;5093803;28;20060;-82
2021/01/31 23:03:40;;;;;;;50.63;27.15;;;-1.50;89.80;;;;;;5093811;28;20024;-83
2021/01/31 23:06:07;;;;;;;65.28;32.30;;;-1.50;90.00;;;;;;5095009;28;20462;-83
2021/01/31 23:08:33;;;;;;;60.33;29.25;;;-1.60;90.30;;;;;;5093826;28;20046;-83
2021/01/31 23:10:59;;;;;;;54.35;26.58;;;-1.60;90.40;;;;;;5093665;28;20043;-83
2021/01/31 23:13:25;;;;;;;64.28;30.98;;;-1.60;90.40;;;;;;5093460;28;20032;-82
2021/01/31 23:15:50;;;;;;;47.72;25.23;;;-1.70;90.50;;;;;;5093800;28;20043;-83
2021/01/31 23:18:16;;;;;;;45.83;22.58;;;-1.60;90.50;;;;;;5093553;28;20027;-83
2021/01/31 23:20:43;;;;;;;51.22;26.73;;;-1.60;90.40;;;;;;5093669;28;20028;-83
2021/01/31 23:23:12;;;;;;;39.88;20.70;;;-1.60;90.40;;;;;;5093313;28;20039;-83
2021/01/31 23:25:40;;;;;;;49.13;25.35;;;-1.50;90.30;;;;;;5094759;28;20026;-83
2021/01/31 23:28:08;;;;;;;49.45;24.02;;;-1.50;90.50;;;;;;5093370;28;20020;-83
2021/01/31 23:30:39;;;;;;;50.38;25.67;;;-1.50;90.50;;;;;;5093347;28;20023;-83
2021/01/31 23:33:07;;;;;;;45.05;21.13;;;-1.50;90.40;;;;;;5094573;28;20047;-83
2021/01/31 23:35:36;;;;;;;45.25;23.00;;;-1.40;90.40;;;;;;5093343;28;20363;-83
2021/01/31 23:38:04;;;;;;;48.03;24.42;;;-1.40;90.30;;;;;;5093245;28;20021;-83
2021/01/31 23:40:30;;;;;;;43.92;23.38;;;-1.30;90.20;;;;;;5093313;28;20020;-83
2021/01/31 23:42:56;;;;;;;51.65;25.23;;;-1.30;90.20;;;;;;5093119;28;20020;-83
2021/01/31 23:45:26;;;;;;;54.25;25.38;;;-1.30;90.20;;;;;;5093107;28;20024;-82
2021/01/31 23:47:52;;;;;;;54.88;29.15;;;-1.30;90.20;;;;;;5094044;28;20012;-83
2021/01/31 23:50:18;;;;;;;65.93;29.90;;;-1.30;90.20;;;;;;5094227;28;20103;-83
2021/01/31 23:52:44;;;;;;;62.30;29.65;;;-1.40;90.50;;;;;;5092934;28;20462;-82
2021/01/31 23:55:11;;;;;;;64.53;31.35;;;-1.40;90.60;;;;;;5092975;28;20035;-82
2021/01/31 23:57:37;;;;;;;65.28;32.05;;;-1.40;90.60;;;;;;5092853;28;20028;-83
